createdAt,value
2022-10-20T00:00:55.500Z,29.30
2022-10-20T00:03:24.600Z,29.17
2022-10-20T00:05:52.558Z,29.00
2022-10-20T00:08:20.151Z,29.63
2022-10-20T00:10:54.461Z,29.10
2022-10-20T00:13:22.073Z,29.23
2022-10-20T00:15:50.309Z,29.30
2022-10-20T00:18:17.906Z,29.70
2022-10-20T00:20:47.356Z,30.40
2022-10-20T00:23:15.049Z,30.30
2022-10-20T00:25:42.653Z,29.57
2022-10-20T00:28:10.447Z,29.10
2022-10-20T00:30:39.869Z,29.50
2022-10-20T00:33:07.835Z,29.33
2022-10-20T00:35:39.173Z,30.33
2022-10-20T00:38:08.086Z,29.40
2022-10-20T00:40:35.638Z,29.40
2022-10-20T00:43:03.159Z,29.30
2022-10-20T00:45:30.806Z,29.80
2022-10-20T00:48:02.802Z,30.57
2022-10-20T00:50:34.733Z,31.40
2022-10-20T00:53:03.170Z,31.20
2022-10-20T00:55:35.042Z,30.30
2022-10-20T00:58:04.117Z,29.50
2022-10-20T01:00:31.990Z,30.37
2022-10-20T01:03:03.457Z,29.87
2022-10-20T01:05:31.117Z,30.03
2022-10-20T01:07:58.629Z,31.73
2022-10-20T01:10:33.653Z,32.50
2022-10-20T01:13:09.548Z,32.57
2022-10-20T01:15:46.162Z,34.47
2022-10-20T01:18:22.079Z,34.13
2022-10-20T01:21:13.957Z,34.33
2022-10-20T01:24:13.117Z,35.63
2022-10-20T01:27:26.390Z,36.27
2022-10-20T01:30:02.442Z,35.33
2022-10-20T01:32:38.871Z,35.40
2022-10-20T01:35:12.709Z,35.93
2022-10-20T01:37:49.577Z,37.63
2022-10-20T01:40:23.227Z,36.80
2022-10-20T01:42:55.073Z,38.73
2022-10-20T01:45:25.454Z,37.67
2022-10-20T01:47:55.049Z,37.87
2022-10-20T01:50:24.319Z,37.97
2022-10-20T01:52:57.632Z,37.40
2022-10-20T01:55:25.309Z,37.53
2022-10-20T01:58:10.827Z,37.50
2022-10-20T02:00:40.273Z,37.10
2022-10-20T02:03:26.804Z,36.83
2022-10-20T02:06:09.642Z,35.70
2022-10-20T02:08:42.884Z,35.43
2022-10-20T02:11:17.395Z,37.57
2022-10-20T02:13:47.053Z,36.60
2022-10-20T02:16:21.227Z,35.00
2022-10-20T02:18:49.773Z,36.07
2022-10-20T02:21:17.669Z,36.10
2022-10-20T02:23:47.917Z,36.73
2022-10-20T02:26:19.018Z,36.67
2022-10-20T02:28:53.366Z,33.90
2022-10-20T02:31:21.932Z,35.70
2022-10-20T02:33:49.964Z,36.43
2022-10-20T02:36:20.284Z,35.50
2022-10-20T02:38:48.212Z,34.70
2022-10-20T02:41:15.746Z,35.37
2022-10-20T02:43:43.611Z,35.67
2022-10-20T02:46:12.594Z,36.07
2022-10-20T02:48:40.514Z,37.13
2022-10-20T02:51:08.041Z,35.70
2022-10-20T02:53:35.582Z,34.90
2022-10-20T02:56:03.120Z,35.30
2022-10-20T02:58:30.645Z,35.20
2022-10-20T03:00:58.233Z,36.70
2022-10-20T03:03:27.233Z,37.00
2022-10-20T03:05:54.809Z,35.10
2022-10-20T03:08:23.170Z,36.43
2022-10-20T03:10:50.705Z,35.60
2022-10-20T03:13:18.241Z,35.40
2022-10-20T03:15:45.777Z,35.53
2022-10-20T03:18:13.312Z,35.37
2022-10-20T03:20:42.201Z,35.50
2022-10-20T03:23:09.726Z,35.40
2022-10-20T03:25:37.330Z,35.07
2022-10-20T03:28:05.107Z,34.57
2022-10-20T03:30:32.633Z,34.00
2022-10-20T03:33:00.177Z,34.40
2022-10-20T03:35:27.725Z,34.83
2022-10-20T03:37:56.622Z,35.70
2022-10-20T03:40:24.300Z,35.10
2022-10-20T03:42:52.038Z,35.50
2022-10-20T03:45:19.590Z,35.20
2022-10-20T03:47:47.167Z,35.30
2022-10-20T03:50:14.710Z,34.80
2022-10-20T03:52:42.245Z,34.10
2022-10-20T03:55:11.283Z,35.33
2022-10-20T03:57:39.031Z,35.50
2022-10-20T04:00:07.939Z,35.63
2022-10-20T04:02:38.468Z,36.37
2022-10-20T04:05:07.330Z,35.67
2022-10-20T04:07:35.978Z,34.93
2022-10-20T04:10:03.523Z,35.00
2022-10-20T04:12:32.883Z,35.33
2022-10-20T04:15:00.594Z,34.93
2022-10-20T04:17:28.809Z,36.17
2022-10-20T04:19:56.358Z,35.67
2022-10-20T04:22:24.709Z,35.70
2022-10-20T04:24:52.248Z,35.27
2022-10-20T04:27:19.790Z,36.80
2022-10-20T04:29:49.479Z,35.43
2022-10-20T04:32:17.564Z,34.97
2022-10-20T04:34:45.082Z,33.93
2022-10-20T04:37:12.646Z,32.60
2022-10-20T04:39:40.175Z,35.00
2022-10-20T04:42:07.726Z,33.47
2022-10-20T04:44:35.254Z,34.60
2022-10-20T04:47:04.114Z,34.53
2022-10-20T04:49:31.683Z,35.10
2022-10-20T04:52:01.151Z,34.80
2022-10-20T04:54:29.577Z,35.27
2022-10-20T04:56:57.437Z,34.40
2022-10-20T04:59:25.278Z,35.17
2022-10-20T05:01:52.876Z,35.50
2022-10-20T05:04:22.006Z,35.10
2022-10-20T05:06:50.287Z,35.40
2022-10-20T05:09:17.850Z,34.80
2022-10-20T05:11:45.406Z,33.77
2022-10-20T05:14:12.951Z,34.00
2022-10-20T05:16:40.551Z,33.60
2022-10-20T05:19:08.141Z,32.47
2022-10-20T05:21:37.072Z,33.27
2022-10-20T05:24:06.238Z,34.37
2022-10-20T05:26:37.353Z,32.83
2022-10-20T05:29:06.294Z,33.27
2022-10-20T05:31:37.537Z,33.63
2022-10-20T05:34:05.068Z,34.83
2022-10-20T05:36:32.868Z,33.93
2022-10-20T05:39:01.838Z,34.50
2022-10-20T05:41:33.370Z,33.57
2022-10-20T05:44:06.019Z,34.83
2022-10-20T05:46:37.846Z,34.87
2022-10-20T05:49:05.400Z,34.50
2022-10-20T05:51:36.190Z,35.13
2022-10-20T05:54:05.426Z,35.90
2022-10-20T05:56:33.586Z,34.83
2022-10-20T05:59:01.103Z,34.13
2022-10-20T06:01:39.631Z,34.60
2022-10-20T06:04:08.907Z,34.30
2022-10-20T06:06:36.990Z,33.27
2022-10-20T06:09:07.712Z,33.40
2022-10-20T06:11:39.281Z,33.13
2022-10-20T06:14:08.312Z,33.43
2022-10-20T06:16:36.031Z,33.37
2022-10-20T06:19:04.010Z,33.63
2022-10-20T06:21:33.170Z,33.33
2022-10-20T06:24:01.826Z,33.40
2022-10-20T06:26:32.804Z,33.20
2022-10-20T06:29:04.395Z,33.40
2022-10-20T06:31:34.317Z,33.30
2022-10-20T06:34:02.496Z,33.50
2022-10-20T06:36:30.009Z,34.03
2022-10-20T06:39:01.670Z,33.13
2022-10-20T06:41:30.550Z,33.40
2022-10-20T06:43:59.824Z,33.43
2022-10-20T06:46:28.634Z,34.73
2022-10-20T06:48:58.681Z,33.03
2022-10-20T06:51:27.302Z,34.20
2022-10-20T06:53:54.966Z,34.43
2022-10-20T06:56:23.901Z,34.27
2022-10-20T06:58:54.762Z,34.83
2022-10-20T07:01:24.208Z,34.37
2022-10-20T07:03:53.894Z,34.97
2022-10-20T07:06:23.945Z,34.93
2022-10-20T07:08:53.562Z,34.83
2022-10-20T07:11:23.746Z,34.50
2022-10-20T07:13:53.280Z,35.60
2022-10-20T07:16:22.865Z,35.47
2022-10-20T07:18:51.014Z,36.47
2022-10-20T07:21:20.619Z,36.27
2022-10-20T07:23:49.638Z,36.73
2022-10-20T07:26:19.282Z,36.20
2022-10-20T07:28:53.194Z,36.57
2022-10-20T07:31:27.992Z,35.70
2022-10-20T07:34:06.959Z,36.10
2022-10-20T07:36:44.338Z,36.60
2022-10-20T07:39:13.567Z,36.23
2022-10-20T07:41:43.969Z,35.73
2022-10-20T07:44:11.523Z,34.53
2022-10-20T07:46:40.438Z,34.83
2022-10-20T07:51:55.534Z,35.83
2022-10-20T07:54:23.326Z,35.67
2022-10-20T07:56:51.570Z,37.87
2022-10-20T07:59:19.665Z,37.53
2022-10-20T08:01:48.913Z,36.43
2022-10-20T08:04:16.509Z,37.03
2022-10-20T08:06:44.055Z,36.53
2022-10-20T08:09:11.633Z,37.20
2022-10-20T08:11:39.227Z,34.33
2022-10-20T08:14:06.817Z,36.00
2022-10-20T08:16:44.367Z,36.40
2022-10-20T08:19:19.205Z,34.50
2022-10-20T08:21:47.090Z,35.40
2022-10-20T08:24:14.633Z,35.50
2022-10-20T08:26:42.186Z,35.83
2022-10-20T08:29:10.011Z,34.30
2022-10-20T08:31:37.886Z,35.33
2022-10-20T08:34:05.452Z,35.00
2022-10-20T08:36:37.295Z,34.43
2022-10-20T08:39:06.377Z,35.80
2022-10-20T08:41:55.324Z,35.63
2022-10-20T08:44:33.529Z,33.93
2022-10-20T08:47:03.165Z,34.13
2022-10-20T08:49:34.223Z,33.43
2022-10-20T08:52:03.597Z,33.37
2022-10-20T08:54:35.353Z,34.03
2022-10-20T08:57:02.918Z,34.77
2022-10-20T08:59:34.938Z,33.63
2022-10-20T09:02:04.787Z,33.47
2022-10-20T09:04:37.724Z,32.60
2022-10-20T09:07:14.448Z,32.80
2022-10-20T09:09:42.310Z,31.83
2022-10-20T09:12:14.897Z,34.50
2022-10-20T09:14:42.732Z,32.90
2022-10-20T09:17:16.807Z,32.17
2022-10-20T09:19:48.696Z,31.37
2022-10-20T09:22:18.265Z,31.90
2022-10-20T09:24:47.013Z,31.73
2022-10-20T09:27:24.464Z,31.17
2022-10-20T09:29:52.135Z,30.73
2022-10-20T09:32:48.173Z,31.07
2022-10-20T09:35:23.294Z,29.43
2022-10-20T09:37:59.862Z,30.37
2022-10-20T09:40:28.442Z,29.90
2022-10-20T09:42:58.110Z,28.50
2022-10-20T09:45:29.450Z,27.97
2022-10-20T09:48:02.507Z,28.33
2022-10-20T09:50:33.355Z,28.03
2022-10-20T09:53:05.714Z,27.87
2022-10-20T09:55:36.069Z,26.73
2022-10-20T09:58:06.057Z,25.73
2022-10-20T10:00:37.942Z,26.00
2022-10-20T10:03:11.807Z,25.53
2022-10-20T10:05:39.312Z,24.30
2022-10-20T10:08:14.975Z,23.53
2022-10-20T10:10:45.323Z,23.97
2022-10-20T10:13:25.676Z,23.17
2022-10-20T10:16:06.151Z,21.23
2022-10-20T10:18:35.262Z,20.60
2022-10-20T10:21:05.951Z,20.70
2022-10-20T10:23:36.509Z,20.20
2022-10-20T10:26:08.397Z,18.47
2022-10-20T10:28:38.563Z,19.30
2022-10-20T10:31:25.112Z,17.87
2022-10-20T10:33:57.035Z,16.07
2022-10-20T10:36:34.238Z,16.07
2022-10-20T10:39:05.537Z,15.00
2022-10-20T10:41:51.833Z,13.80
2022-10-20T10:44:32.503Z,12.93
2022-10-20T10:47:09.045Z,13.30
2022-10-20T10:49:46.227Z,14.00
2022-10-20T10:52:32.381Z,13.83
2022-10-20T10:55:21.267Z,12.50
2022-10-20T10:58:08.199Z,12.37
2022-10-20T11:00:45.934Z,13.10
2022-10-20T11:03:39.864Z,11.67
2022-10-20T11:06:17.915Z,11.30
2022-10-20T11:09:21.290Z,11.73
2022-10-20T11:12:15.290Z,12.23
2022-10-20T11:15:00.782Z,10.60
2022-10-20T11:17:44.887Z,10.50
2022-10-20T11:20:26.330Z,11.40
2022-10-20T11:23:17.607Z,11.60
2022-10-20T11:25:50.911Z,11.27
2022-10-20T11:28:30.402Z,10.73
2022-10-20T11:31:00.267Z,11.00
2022-10-20T11:33:43.002Z,10.73
2022-10-20T11:36:16.366Z,10.70
2022-10-20T11:38:50.505Z,11.37
2022-10-20T11:41:24.926Z,10.10
2022-10-20T11:44:00.138Z,9.90
2022-10-20T11:46:35.755Z,9.80
2022-10-20T11:49:04.689Z,10.07
2022-10-20T11:52:05.173Z,9.57
2022-10-20T11:54:45.241Z,9.93
2022-10-20T11:57:20.978Z,9.70
2022-10-20T12:00:12.975Z,9.83
2022-10-20T12:03:08.022Z,9.87
2022-10-20T12:06:09.030Z,9.97
2022-10-20T12:09:03.960Z,9.90
2022-10-20T12:11:39.745Z,9.50
2022-10-20T12:14:18.451Z,8.93
2022-10-20T12:17:28.457Z,9.53
2022-10-20T12:20:44.462Z,9.40
2022-10-20T12:23:44.503Z,9.50
2022-10-20T12:26:43.898Z,9.30
2022-10-20T12:29:54.145Z,10.20
2022-10-20T12:32:54.476Z,9.50
2022-10-20T12:36:00.178Z,9.37
2022-10-20T12:38:29.702Z,8.87
2022-10-20T12:41:00.366Z,8.30
2022-10-20T12:43:53.911Z,8.63
2022-10-20T12:46:26.631Z,8.33
2022-10-20T12:48:59.901Z,8.17
2022-10-20T12:51:40.936Z,8.10
2022-10-20T12:54:20.345Z,7.10
2022-10-20T12:56:49.610Z,7.10
2022-10-20T12:59:35.919Z,7.03
2022-10-20T13:02:39.850Z,6.90
2022-10-20T13:05:40.674Z,7.60
2022-10-20T13:08:23.831Z,7.47
2022-10-20T13:10:53.795Z,6.40
2022-10-20T13:13:57.594Z,6.80
2022-10-20T13:16:33.046Z,7.10
2022-10-20T13:19:01.362Z,7.20
2022-10-20T13:21:34.774Z,7.10
2022-10-20T13:24:14.494Z,7.60
2022-10-20T13:26:51.414Z,7.40
2022-10-20T13:29:23.186Z,7.20
2022-10-20T13:32:03.696Z,7.30
2022-10-20T13:34:37.260Z,6.57
2022-10-20T13:37:19.137Z,7.20
2022-10-20T13:40:00.314Z,7.20
2022-10-20T13:42:40.679Z,6.90
2022-10-20T13:45:19.619Z,6.50
2022-10-20T13:47:57.337Z,7.10
2022-10-20T13:50:28.967Z,6.67
2022-10-20T13:53:00.145Z,7.00
2022-10-20T13:55:31.294Z,6.80
2022-10-20T13:58:05.665Z,7.20
2022-10-20T14:00:36.048Z,5.80
2022-10-20T14:03:06.039Z,7.00
2022-10-20T14:05:39.239Z,6.27
2022-10-20T14:08:09.950Z,7.17
2022-10-20T14:10:44.902Z,6.50
2022-10-20T14:13:16.850Z,6.17
2022-10-20T14:15:48.131Z,6.53
2022-10-20T14:18:23.742Z,6.07
2022-10-20T14:21:02.503Z,6.57
2022-10-20T14:23:36.040Z,7.07
2022-10-20T14:26:07.622Z,7.50
2022-10-20T14:28:37.365Z,7.37
2022-10-20T14:31:05.833Z,6.60
2022-10-20T14:33:36.086Z,8.50
2022-10-20T14:36:04.661Z,6.93
2022-10-20T14:38:37.627Z,6.33
2022-10-20T14:41:09.479Z,6.63
2022-10-20T14:43:40.429Z,6.90
2022-10-20T14:46:10.158Z,6.57
2022-10-20T14:48:42.295Z,7.70
2022-10-20T14:51:30.946Z,7.60
2022-10-20T14:54:26.011Z,7.70
2022-10-20T14:56:56.984Z,7.80
2022-10-20T14:59:26.929Z,7.87
2022-10-20T15:02:08.519Z,7.67
2022-10-20T15:04:37.319Z,7.53
2022-10-20T15:07:08.018Z,7.20
2022-10-20T15:09:41.566Z,7.43
2022-10-20T15:12:17.106Z,8.00
2022-10-20T15:14:48.045Z,8.27
2022-10-20T15:17:36.134Z,8.03
2022-10-20T15:20:38.773Z,8.50
2022-10-20T15:23:09.317Z,9.00
2022-10-20T15:25:43.448Z,8.37
2022-10-20T15:28:35.393Z,8.47
2022-10-20T15:31:05.594Z,8.70
2022-10-20T15:33:33.522Z,9.40
2022-10-20T15:36:01.824Z,8.70
2022-10-20T15:38:29.681Z,8.67
2022-10-20T15:40:57.241Z,8.40
2022-10-20T15:43:24.831Z,9.23
2022-10-20T15:45:55.763Z,8.70
2022-10-20T15:48:25.941Z,8.67
2022-10-20T15:50:54.059Z,9.53
2022-10-20T15:53:21.783Z,10.00
2022-10-20T15:55:49.328Z,9.90
2022-10-20T15:58:17.004Z,9.97
2022-10-20T16:00:44.599Z,9.37
2022-10-20T16:03:17.614Z,9.53
2022-10-20T16:05:45.522Z,10.07
2022-10-20T16:10:45.533Z,10.10
2022-10-20T16:13:13.114Z,11.80
2022-10-20T16:15:40.651Z,12.60
2022-10-20T16:18:09.861Z,10.83
2022-10-20T16:20:39.116Z,11.77
2022-10-20T16:23:06.703Z,12.20
2022-10-20T16:25:34.318Z,10.60
2022-10-20T16:28:01.923Z,10.30
2022-10-20T16:30:29.492Z,10.97
2022-10-20T16:32:57.178Z,11.17
2022-10-20T16:35:24.745Z,10.70
2022-10-20T16:37:53.617Z,11.37
2022-10-20T16:40:21.216Z,10.80
2022-10-20T16:42:48.758Z,10.67
2022-10-20T16:45:16.574Z,11.80
2022-10-20T16:47:44.154Z,11.63
2022-10-20T16:50:12.038Z,11.13
2022-10-20T16:52:39.947Z,12.20
2022-10-20T16:55:10.038Z,11.60
2022-10-20T16:57:39.737Z,11.20
2022-10-20T17:00:09.606Z,11.43
2022-10-20T17:02:38.013Z,11.60
2022-10-20T17:05:09.107Z,11.93
2022-10-20T17:07:37.762Z,12.47
2022-10-20T17:10:06.425Z,11.87
2022-10-20T17:12:35.361Z,11.30
2022-10-20T17:15:02.888Z,11.30
2022-10-20T17:17:30.423Z,11.20
2022-10-20T17:19:57.937Z,10.97
2022-10-20T17:22:25.578Z,11.60
2022-10-20T17:24:53.101Z,12.43
2022-10-20T17:27:20.641Z,11.90
2022-10-20T17:29:49.525Z,11.37
2022-10-20T17:32:18.269Z,11.30
2022-10-20T17:34:46.015Z,11.37
2022-10-20T17:37:13.562Z,10.60
2022-10-20T17:39:41.217Z,12.17
2022-10-20T17:42:08.752Z,11.67
2022-10-20T17:44:36.307Z,11.97
2022-10-20T17:47:05.299Z,11.80
2022-10-20T17:49:32.810Z,12.00
2022-10-20T17:52:00.359Z,12.20
2022-10-20T17:54:27.885Z,11.33
2022-10-20T17:56:55.418Z,11.23
2022-10-20T17:59:23.054Z,11.23
2022-10-20T18:01:50.705Z,11.43
2022-10-20T18:04:19.714Z,11.33
2022-10-20T18:06:47.822Z,11.37
2022-10-20T18:09:18.374Z,11.27
2022-10-20T18:11:48.032Z,11.30
2022-10-20T18:14:16.915Z,11.33
2022-10-20T18:16:44.938Z,11.73
2022-10-20T18:19:15.669Z,11.87
2022-10-20T18:21:45.211Z,12.17
2022-10-20T18:24:14.962Z,11.87
2022-10-20T18:26:43.055Z,12.53
2022-10-20T18:29:11.874Z,12.77
2022-10-20T18:31:41.581Z,11.67
2022-10-20T18:34:10.559Z,12.00
2022-10-20T18:36:41.889Z,12.10
2022-10-20T18:39:15.739Z,11.00
2022-10-20T18:41:45.446Z,12.17
2022-10-20T18:44:14.853Z,12.00
2022-10-20T18:46:42.692Z,12.07
2022-10-20T18:49:13.063Z,11.93
2022-10-20T18:51:41.370Z,13.90
2022-10-20T18:54:12.929Z,13.00
2022-10-20T18:56:42.795Z,13.37
2022-10-20T18:59:13.814Z,14.40
2022-10-20T19:01:42.022Z,14.37
2022-10-20T19:04:11.266Z,15.60
2022-10-20T19:06:42.002Z,15.03
2022-10-20T19:09:11.716Z,15.57
2022-10-20T19:11:40.423Z,16.50
2022-10-20T19:14:11.432Z,15.40
2022-10-20T19:16:40.713Z,15.83
2022-10-20T19:19:09.276Z,16.47
2022-10-20T19:21:37.114Z,16.20
2022-10-20T19:24:07.130Z,18.17
2022-10-20T19:26:36.433Z,18.67
2022-10-20T19:29:07.486Z,20.03
2022-10-20T19:31:40.345Z,19.70
2022-10-20T19:34:11.283Z,19.10
2022-10-20T19:36:42.072Z,21.60
2022-10-20T19:39:12.130Z,22.33
2022-10-20T19:41:39.934Z,22.70
2022-10-20T19:44:07.521Z,22.93
2022-10-20T19:46:36.456Z,24.00
2022-10-20T19:49:04.410Z,23.50
2022-10-20T19:51:32.045Z,24.23
2022-10-20T19:53:59.590Z,25.30
2022-10-20T19:56:27.497Z,25.53
2022-10-20T19:58:55.085Z,26.20
2022-10-20T20:01:22.719Z,26.00
2022-10-20T20:03:51.661Z,27.13
2022-10-20T20:06:21.154Z,28.10
2022-10-20T20:08:51.016Z,28.80
2022-10-20T20:11:23.644Z,28.73
2022-10-20T20:13:53.498Z,28.43
2022-10-20T20:16:21.180Z,29.10
2022-10-20T20:18:48.991Z,31.17
2022-10-20T20:21:18.442Z,31.40
2022-10-20T20:24:01.630Z,31.37
2022-10-20T20:26:30.387Z,31.40
2022-10-20T20:28:58.343Z,30.90
2022-10-20T20:31:27.343Z,31.37
2022-10-20T20:33:56.566Z,32.03
2022-10-20T20:36:27.502Z,32.00
2022-10-20T20:38:57.500Z,34.40
2022-10-20T20:41:27.653Z,35.00
2022-10-20T20:43:55.373Z,34.60
2022-10-20T20:46:26.737Z,33.77
2022-10-20T20:48:54.521Z,35.33
2022-10-20T20:51:22.185Z,35.77
2022-10-20T20:53:51.034Z,35.27
2022-10-20T20:56:21.848Z,34.90
2022-10-20T20:58:55.115Z,36.07
2022-10-20T21:01:24.779Z,35.70
2022-10-20T21:03:53.987Z,35.17
2022-10-20T21:06:25.698Z,35.73
2022-10-20T21:09:03.009Z,36.13
2022-10-20T21:11:31.049Z,35.00
2022-10-20T21:13:59.773Z,37.67
2022-10-20T21:16:30.560Z,35.70
2022-10-20T21:18:59.624Z,36.83
2022-10-20T21:21:29.076Z,36.50
2022-10-20T21:23:58.553Z,37.00
2022-10-20T21:26:28.735Z,37.10
2022-10-20T21:28:56.620Z,36.70
2022-10-20T21:31:25.929Z,36.10
2022-10-20T21:33:55.127Z,37.47
2022-10-20T21:36:23.423Z,37.10
2022-10-20T21:38:52.145Z,36.03
2022-10-20T21:41:22.033Z,37.53
2022-10-20T21:43:52.838Z,37.27
2022-10-20T21:46:22.325Z,36.27
2022-10-20T21:48:51.454Z,36.90
2022-10-20T21:51:21.377Z,36.40
2022-10-20T21:53:49.648Z,38.17
2022-10-20T21:56:17.526Z,38.30
2022-10-20T21:58:45.041Z,39.80
2022-10-20T22:01:15.903Z,39.70
2022-10-20T22:03:44.059Z,39.27
2022-10-20T22:06:13.211Z,37.57
2022-10-20T22:08:43.247Z,39.90
2022-10-20T22:11:12.927Z,38.40
2022-10-20T22:13:40.682Z,41.00
2022-10-20T22:16:10.753Z,38.60
2022-10-20T22:18:40.189Z,41.00
2022-10-20T22:21:13.276Z,38.93
2022-10-20T22:23:41.457Z,40.00
2022-10-20T22:26:09.709Z,39.20
2022-10-20T22:28:38.095Z,38.70
2022-10-20T22:31:06.209Z,39.50
2022-10-20T22:33:33.738Z,38.70
2022-10-20T22:36:02.679Z,40.40
2022-10-20T22:38:30.191Z,40.47
2022-10-20T22:40:59.482Z,40.87
2022-10-20T22:43:27.357Z,39.73
2022-10-20T22:45:55.157Z,39.67
2022-10-20T22:48:22.842Z,40.10
2022-10-20T22:50:50.745Z,40.83
2022-10-20T22:53:19.703Z,40.17
2022-10-20T22:55:47.479Z,41.67
2022-10-20T22:58:15.061Z,40.90
2022-10-20T23:00:44.410Z,41.17
2022-10-20T23:03:12.322Z,41.43
2022-10-20T23:05:39.870Z,40.80
2022-10-20T23:08:07.487Z,40.30
2022-10-20T23:10:36.352Z,40.03
2022-10-20T23:13:03.899Z,40.57
2022-10-20T23:15:31.424Z,41.43
2022-10-20T23:17:58.954Z,39.77
2022-10-20T23:20:26.491Z,40.10
2022-10-20T23:22:54.005Z,40.37
2022-10-20T23:25:21.538Z,41.50
2022-10-20T23:27:50.431Z,40.30
2022-10-20T23:30:17.981Z,41.60
2022-10-20T23:32:45.570Z,39.80
2022-10-20T23:35:13.104Z,41.80
2022-10-20T23:37:40.763Z,41.40
2022-10-20T23:40:09.350Z,40.90
2022-10-20T23:42:36.871Z,39.87
2022-10-20T23:45:06.727Z,40.73
2022-10-20T23:47:34.279Z,39.87
2022-10-20T23:50:01.814Z,41.30
2022-10-20T23:52:29.440Z,40.30
2022-10-20T23:54:57.018Z,41.30
2022-10-20T23:57:24.673Z,41.57
2022-10-20T23:59:52.203Z,41.97
